Time;durP1;ratioP1;P1;durP2;ratioP2;P2;SDS_P1;SDS_P2;PMS_P1;PMS_P2;Temp;Humidity;BMP_temperature;BMP_pressure;BME280_temperature;BME280_humidity;BME280_pressure;Samples;Min_cycle;Max_cycle;Signal;HPM_P1;HPM_P2
2023/03/11 00:02:09;;;;;;;36.95;14.95;;;8.60;79.60;;;;;;5037977;28;20314;-22
2023/03/11 00:04:36;;;;;;;19.63;12.10;;;8.60;80.50;;;;;;5055822;28;20036;-22
2023/03/11 00:07:04;;;;;;;23.05;13.73;;;8.70;79.40;;;;;;5055493;28;20025;-21
2023/03/11 00:09:30;;;;;;;23.00;13.15;;;8.70;78.70;;;;;;5055748;28;20037;-21
2023/03/11 00:11:56;;;;;;;29.38;14.57;;;8.70;78.70;;;;;;5055796;28;20051;-21
2023/03/11 00:14:21;;;;;;;23.95;12.75;;;8.70;79.20;;;;;;5037662;28;20403;-22
2023/03/11 00:16:47;;;;;;;21.60;13.50;;;8.70;79.00;;;;;;5055629;28;20025;-22
2023/03/11 00:19:13;;;;;;;23.92;13.48;;;8.70;79.00;;;;;;5128647;22;20079;-15
2023/03/11 00:21:38;;;;;;;24.95;13.38;;;8.70;78.90;;;;;;5075804;28;20099;-15
2023/03/11 00:24:05;;;;;;;28.00;14.38;;;8.60;79.80;;;;;;5075229;28;20051;-17
2023/03/11 00:26:30;;;;;;;31.52;15.40;;;8.60;79.90;;;;;;5057159;28;20465;-16
2023/03/11 00:28:56;;;;;;;21.83;12.68;;;8.60;80.00;;;;;;5075025;28;20056;-16
2023/03/11 00:31:25;;;;;;;20.02;11.65;;;8.60;79.70;;;;;;5146716;22;20052;-20
2023/03/11 00:33:56;;;;;;;18.77;10.70;;;8.60;79.40;;;;;;5075098;28;20028;-20
2023/03/11 00:36:30;;;;;;;19.33;11.00;;;8.70;78.80;;;;;;5075401;28;20033;-18
2023/03/11 00:38:57;;;;;;;15.32;9.80;;;8.70;78.80;;;;;;5075036;28;20029;-21
2023/03/11 00:41:23;;;;;;;18.08;11.00;;;8.60;79.00;;;;;;5074885;28;20025;-20
2023/03/11 00:43:49;;;;;;;18.75;10.73;;;8.60;78.90;;;;;;5075275;28;20024;-20
2023/03/11 00:46:14;;;;;;;16.02;10.32;;;8.60;79.00;;;;;;5074911;28;20105;-22
2023/03/11 00:48:40;;;;;;;16.48;10.57;;;8.60;78.90;;;;;;5074549;28;20036;-21
2023/03/11 00:51:10;;;;;;;18.17;11.30;;;8.60;79.10;;;;;;5075005;28;20028;-20
2023/03/11 00:53:36;;;;;;;18.90;10.95;;;8.60;79.00;;;;;;5074727;28;20029;-21
2023/03/11 00:56:10;;;;;;;18.70;11.00;;;8.60;78.70;;;;;;5074623;28;20036;-21
2023/03/11 00:58:36;;;;;;;;;;;8.50;78.70;;;;;;5075335;28;20031;-20
2023/03/11 01:01:13;;;;;;;22.88;11.48;;;8.50;78.80;;;;;;5074262;28;19904;-20
2023/03/11 01:03:39;;;;;;;23.35;13.02;;;8.50;78.70;;;;;;5074625;28;20025;-21
2023/03/11 01:06:06;;;;;;;20.42;12.23;;;8.60;79.10;;;;;;5073077;28;20035;-20
2023/03/11 01:08:32;;;;;;;22.58;13.05;;;8.50;79.10;;;;;;5074580;28;20020;-19
2023/03/11 01:10:58;;;;;;;20.58;12.60;;;8.50;79.10;;;;;;5074503;28;20456;-21
2023/03/11 01:13:26;;;;;;;18.27;11.13;;;8.50;79.20;;;;;;5074285;28;20029;-21
2023/03/11 01:15:52;;;;;;;23.25;12.15;;;8.50;79.00;;;;;;5074202;28;20051;-21
2023/03/11 01:18:19;;;;;;;24.98;13.32;;;8.40;79.00;;;;;;5074252;28;20040;-20
2023/03/11 01:20:46;;;;;;;22.02;12.57;;;8.40;79.20;;;;;;5073931;28;20028;-21
2023/03/11 01:23:13;;;;;;;23.73;13.02;;;8.40;79.00;;;;;;5074166;28;20033;-20
2023/03/11 01:25:39;;;;;;;25.00;14.27;;;8.30;78.90;;;;;;5074394;28;20453;-19
2023/03/11 01:28:07;;;;;;;17.95;11.88;;;8.20;79.00;;;;;;5074153;28;20040;-19
2023/03/11 01:30:34;;;;;;;21.23;13.10;;;8.10;79.20;;;;;;5073481;28;20044;-21
2023/03/11 01:33:01;;;;;;;16.67;10.77;;;8.10;79.70;;;;;;5129439;22;20026;-13
2023/03/11 01:35:29;;;;;;;20.70;12.20;;;8.00;79.50;;;;;;5074294;28;20086;-17
2023/03/11 01:37:56;;;;;;;22.33;13.75;;;8.00;79.80;;;;;;5073877;28;20020;-19
2023/03/11 01:40:37;;;;;;;21.75;12.57;;;8.00;79.80;;;;;;5073983;28;20024;-17
2023/03/11 01:43:04;;;;;;;19.95;12.30;;;8.10;79.80;;;;;;5133794;22;20052;-20
2023/03/11 01:45:45;;;;;;;24.98;13.63;;;8.10;79.90;;;;;;5075919;28;20031;-20
2023/03/11 01:48:11;;;;;;;21.25;12.23;;;8.10;80.10;;;;;;5094084;28;20048;-20
2023/03/11 01:50:42;;;;;;;17.65;10.98;;;8.10;80.10;;;;;;5075748;28;20395;-20
2023/03/11 01:53:09;;;;;;;17.80;9.52;;;8.00;80.10;;;;;;5076013;28;20024;-21
2023/03/11 01:55:36;;;;;;;18.45;9.80;;;7.90;80.00;;;;;;5093754;28;20035;-20
2023/03/11 01:58:06;;;;;;;17.63;10.77;;;7.90;79.90;;;;;;5093924;28;20069;-20
2023/03/11 02:00:32;;;;;;;18.77;11.23;;;7.90;79.80;;;;;;5093689;28;20020;-19
2023/03/11 02:03:02;;;;;;;19.00;11.77;;;7.80;79.80;;;;;;5093465;28;20514;-20
2023/03/11 02:05:28;;;;;;;18.67;10.10;;;7.70;79.80;;;;;;5093452;28;20105;-20
2023/03/11 02:07:54;;;;;;;22.73;13.88;;;7.60;79.80;;;;;;5093612;28;20046;-21
2023/03/11 02:10:21;;;;;;;25.13;13.43;;;7.60;80.10;;;;;;5093652;28;20035;-21
2023/03/11 02:12:49;;;;;;;23.95;13.60;;;7.50;80.10;;;;;;5093215;28;20069;-21
2023/03/11 02:15:16;;;;;;;22.85;13.55;;;7.40;80.00;;;;;;5093687;28;20043;-21
2023/03/11 02:17:42;;;;;;;26.35;13.95;;;7.30;80.10;;;;;;5093393;28;20165;-23
2023/03/11 02:20:32;;;;;;;23.95;13.63;;;7.30;80.00;;;;;;5093412;28;20519;-22
2023/03/11 02:23:01;;;;;;;22.35;13.10;;;7.20;80.30;;;;;;5074796;28;20051;-21
2023/03/11 02:25:54;;;;;;;20.42;12.30;;;7.30;80.60;;;;;;5093189;28;20356;-19
2023/03/11 02:28:20;;;;;;;17.65;11.70;;;7.20;80.50;;;;;;5086568;28;20044;-20
2023/03/11 02:30:48;;;;;;;23.58;14.27;;;7.10;80.70;;;;;;5092946;28;20028;-19
2023/03/11 02:33:15;;;;;;;17.73;11.85;;;7.10;80.60;;;;;;5092982;28;20039;-21
2023/03/11 02:35:41;;;;;;;15.93;10.77;;;7.10;80.70;;;;;;5092966;28;20039;-22
2023/03/11 02:38:07;;;;;;;17.80;10.35;;;7.10;80.70;;;;;;5093267;28;20024;-21
2023/03/11 02:40:48;;;;;;;20.90;11.95;;;7.10;80.60;;;;;;5092840;28;20020;-20
2023/03/11 02:43:18;;;;;;;18.90;10.77;;;7.10;80.60;;;;;;5092835;28;20070;-21
2023/03/11 02:45:45;;;;;;;18.35;11.63;;;7.10;80.70;;;;;;5093052;28;20188;-20
2023/03/11 02:48:13;;;;;;;26.63;14.20;;;7.10;80.80;;;;;;5092619;28;20032;-21
2023/03/11 02:50:40;;;;;;;21.10;13.80;;;7.00;80.60;;;;;;5092760;28;20383;-20
2023/03/11 02:53:06;;;;;;;22.35;12.95;;;7.00;80.50;;;;;;5092973;28;20487;-22
2023/03/11 02:55:32;;;;;;;18.15;11.80;;;6.90;80.60;;;;;;5092576;28;20038;-22
2023/03/11 02:57:58;;;;;;;15.15;10.25;;;6.90;80.80;;;;;;5093051;28;20402;-20
2023/03/11 03:00:24;;;;;;;19.83;12.35;;;6.90;80.90;;;;;;5121460;22;20475;-15
2023/03/11 03:02:51;;;;;;;17.45;10.43;;;6.90;81.10;;;;;;5032345;28;20026;-16
2023/03/11 03:05:21;;;;;;;17.80;11.18;;;6.90;81.30;;;;;;5032447;28;20033;-17
2023/03/11 03:07:47;;;;;;;36.50;9.82;;;6.80;80.90;;;;;;5032544;28;20109;-19
2023/03/11 03:10:14;;;;;;;21.25;12.38;;;6.70;80.80;;;;;;5140090;22;20062;-18
2023/03/11 03:12:41;;;;;;;17.50;11.52;;;6.70;80.70;;;;;;5093006;28;20048;-16
2023/03/11 03:15:08;;;;;;;13.63;8.70;;;6.60;80.90;;;;;;5092485;28;20443;-17
2023/03/11 03:17:34;;;;;;;14.70;9.50;;;6.60;81.00;;;;;;5092472;28;20107;-18
2023/03/11 03:20:00;;;;;;;18.67;11.57;;;6.60;80.80;;;;;;5092486;28;20099;-16
2023/03/11 03:22:28;;;;;;;16.15;10.93;;;6.60;80.90;;;;;;5092422;28;20028;-18
2023/03/11 03:24:54;;;;;;;15.45;10.65;;;6.60;80.90;;;;;;5092125;28;20099;-18
2023/03/11 03:27:20;;;;;;;21.77;12.38;;;6.60;81.00;;;;;;5092863;28;20106;-16
2023/03/11 03:29:46;;;;;;;17.65;10.48;;;6.40;81.00;;;;;;5095952;28;20035;-17
2023/03/11 03:32:12;;;;;;;13.93;9.25;;;6.40;81.00;;;;;;5096519;28;20068;-19
2023/03/11 03:34:38;;;;;;;15.48;10.82;;;6.40;80.80;;;;;;5096595;28;20020;-17
2023/03/11 03:37:04;;;;;;;15.57;10.35;;;6.40;80.80;;;;;;5096596;28;20036;-18
2023/03/11 03:39:32;;;;;;;19.52;11.30;;;6.40;80.90;;;;;;5096225;28;20160;-16
2023/03/11 03:41:58;;;;;;;18.55;11.82;;;6.30;80.80;;;;;;5096334;28;20502;-18
2023/03/11 03:44:24;;;;;;;24.15;13.73;;;6.30;80.80;;;;;;5096505;28;20024;-15
2023/03/11 03:46:50;;;;;;;18.98;12.88;;;6.30;80.90;;;;;;5096086;28;20027;-17
2023/03/11 03:49:16;;;;;;;18.20;11.15;;;6.30;80.90;;;;;;5096610;28;20101;-18
2023/03/11 03:51:42;;;;;;;15.52;9.95;;;6.20;80.90;;;;;;5096466;28;20451;-16
2023/03/11 03:54:08;;;;;;;14.02;10.05;;;6.20;80.90;;;;;;5096389;28;20028;-16
2023/03/11 03:56:34;;;;;;;26.67;14.95;;;6.20;80.80;;;;;;5095954;28;20344;-17
2023/03/11 03:59:00;;;;;;;19.00;12.02;;;6.20;81.10;;;;;;5095906;28;20024;-17
2023/03/11 04:01:26;;;;;;;18.70;11.88;;;6.20;81.00;;;;;;5096048;28;20016;-17
2023/03/11 04:03:52;;;;;;;17.75;10.45;;;6.20;81.60;;;;;;5096212;28;20020;-16
2023/03/11 04:06:21;;;;;;;16.45;11.35;;;6.20;80.90;;;;;;5096014;28;20570;-17
2023/03/11 04:08:47;;;;;;;19.58;11.90;;;6.20;80.70;;;;;;5095659;28;20032;-17
2023/03/11 04:11:13;;;;;;;16.98;10.95;;;6.20;80.80;;;;;;5095702;28;20056;-18
2023/03/11 04:13:40;;;;;;;18.50;11.88;;;6.10;80.80;;;;;;5077451;28;20113;-17
2023/03/11 04:16:07;;;;;;;23.50;14.35;;;6.20;80.70;;;;;;5095953;28;20106;-17
2023/03/11 04:18:33;;;;;;;20.20;12.63;;;6.10;80.90;;;;;;5095736;28;20028;-18
2023/03/11 04:21:03;;;;;;;26.38;15.90;;;6.10;81.00;;;;;;5095387;28;20364;-18
2023/03/11 04:23:29;;;;;;;22.95;14.15;;;6.10;81.00;;;;;;5095510;28;20498;-16
2023/03/11 04:25:55;;;;;;;20.02;12.32;;;6.00;81.20;;;;;;5095718;28;20028;-18
2023/03/11 04:28:21;;;;;;;19.63;12.55;;;6.00;81.20;;;;;;5095337;28;20123;-18
2023/03/11 04:30:46;;;;;;;20.42;12.77;;;6.00;81.20;;;;;;5095339;28;20016;-18
2023/03/11 04:33:12;;;;;;;20.80;13.73;;;6.00;81.30;;;;;;5095510;28;20024;-17
2023/03/11 04:35:38;;;;;;;21.40;13.50;;;6.00;81.30;;;;;;5095276;28;20027;-17
2023/03/11 04:38:04;;;;;;;16.85;11.40;;;6.00;81.20;;;;;;5095803;28;20048;-18
2023/03/11 04:40:30;;;;;;;21.73;13.32;;;6.00;81.00;;;;;;5076679;28;20016;-17
2023/03/11 04:42:56;;;;;;;22.75;14.32;;;6.10;81.30;;;;;;5076819;28;20072;-16
2023/03/11 04:45:22;;;;;;;18.13;12.02;;;6.10;81.40;;;;;;5095545;28;20027;-17
2023/03/11 04:47:49;;;;;;;19.42;11.52;;;6.10;81.40;;;;;;5095075;28;20048;-17
2023/03/11 04:50:17;;;;;;;17.65;11.10;;;6.10;81.30;;;;;;5095029;28;20398;-14
2023/03/11 04:52:43;;;;;;;15.45;9.88;;;6.10;81.20;;;;;;5076572;28;20479;-17
2023/03/11 04:55:10;;;;;;;15.20;9.40;;;6.10;80.90;;;;;;5095134;28;20062;-16
2023/03/11 04:57:36;;;;;;;16.23;9.20;;;6.10;81.00;;;;;;5095206;28;20032;-17
2023/03/11 05:00:09;;;;;;;18.27;10.93;;;6.20;80.80;;;;;;5094790;28;20046;-15
2023/03/11 05:02:36;;;;;;;15.27;9.80;;;6.20;80.60;;;;;;5095106;28;20024;-16
2023/03/11 05:05:02;;;;;;;15.52;10.00;;;6.20;80.80;;;;;;5094747;28;20073;-18
2023/03/11 05:07:28;;;;;;;21.33;11.98;;;6.20;80.80;;;;;;5095090;28;20024;-17
2023/03/11 05:09:54;;;;;;;17.88;11.48;;;6.20;80.70;;;;;;5094673;28;20055;-16
2023/03/11 05:12:20;;;;;;;26.27;16.63;;;6.20;80.80;;;;;;5163589;22;20027;-20
2023/03/11 05:14:46;;;;;;;25.70;15.90;;;6.20;80.90;;;;;;5071770;28;20033;-22
2023/03/11 05:17:13;;;;;;;24.95;14.48;;;6.20;80.90;;;;;;5074675;28;20029;-21
2023/03/11 05:19:39;;;;;;;20.20;12.45;;;6.20;80.90;;;;;;5074577;28;20035;-21
2023/03/11 05:22:06;;;;;;;20.50;12.98;;;6.20;80.90;;;;;;5074152;28;20020;-22
2023/03/11 05:24:32;;;;;;;20.23;11.68;;;6.20;81.20;;;;;;5074100;28;20387;-21
2023/03/11 05:26:59;;;;;;;22.63;13.02;;;6.20;81.20;;;;;;5074206;28;20043;-22
2023/03/11 05:29:26;;;;;;;17.40;11.35;;;6.20;81.40;;;;;;5074736;28;20040;-23
2023/03/11 05:31:53;;;;;;;21.55;12.30;;;6.30;81.30;;;;;;5131868;22;20110;-16
2023/03/11 05:34:19;;;;;;;14.65;9.00;;;6.20;81.50;;;;;;5074096;28;20026;-14
2023/03/11 05:36:45;;;;;;;22.55;13.65;;;6.20;81.30;;;;;;5073722;28;20096;-16
2023/03/11 05:39:11;;;;;;;23.70;14.52;;;6.20;81.30;;;;;;5073964;28;20487;-16
2023/03/11 05:41:37;;;;;;;26.92;15.88;;;6.30;81.10;;;;;;5159220;22;20574;-16
2023/03/11 05:44:03;;;;;;;26.45;16.27;;;6.20;81.20;;;;;;5073904;28;20024;-17
2023/03/11 05:46:29;;;;;;;21.80;14.32;;;6.20;81.10;;;;;;5074226;28;20077;-16
2023/03/11 05:48:55;;;;;;;21.65;14.40;;;6.10;81.40;;;;;;5073948;28;20029;-18
2023/03/11 05:51:20;;;;;;;20.85;11.95;;;6.10;81.80;;;;;;5073045;28;20047;-15
2023/03/11 05:53:48;;;;;;;19.42;11.65;;;6.10;81.50;;;;;;5073745;28;20483;-17
2023/03/11 05:56:18;;;;;;;28.38;15.70;;;6.10;81.90;;;;;;5073774;28;20024;-16
2023/03/11 05:58:45;;;;;;;18.63;11.73;;;6.10;82.20;;;;;;5073335;28;20036;-17
2023/03/11 06:01:13;;;;;;;29.10;16.38;;;6.10;82.00;;;;;;5073976;28;20111;-18
2023/03/11 06:03:40;;;;;;;30.25;18.83;;;6.20;82.00;;;;;;5073427;28;20025;-16
2023/03/11 06:06:08;;;;;;;37.25;21.50;;;6.20;82.30;;;;;;5146397;22;20052;-21
2023/03/11 06:08:35;;;;;;;36.40;20.00;;;6.30;81.70;;;;;;5073554;28;20024;-22
2023/03/11 06:11:03;;;;;;;34.88;19.95;;;6.40;81.70;;;;;;5073301;28;20052;-21
2023/03/11 06:13:30;;;;;;;38.50;21.85;;;6.60;82.00;;;;;;5073088;28;20104;-22
2023/03/11 06:15:56;;;;;;;28.60;17.83;;;6.70;82.20;;;;;;5073370;28;20108;-20
2023/03/11 06:18:22;;;;;;;39.20;20.88;;;6.80;82.00;;;;;;5132172;22;20392;-18
2023/03/11 06:20:48;;;;;;;26.30;17.40;;;6.80;81.40;;;;;;5054942;28;20103;-17
2023/03/11 06:23:14;;;;;;;22.55;14.57;;;6.90;81.20;;;;;;5073027;28;20129;-17
2023/03/11 06:25:40;;;;;;;32.33;19.73;;;6.90;81.40;;;;;;5072965;28;20487;-18
2023/03/11 06:28:06;;;;;;;33.20;19.77;;;6.90;81.30;;;;;;5072852;28;20037;-15
2023/03/11 06:30:32;;;;;;;29.55;18.10;;;7.00;81.60;;;;;;5073104;28;20063;-16
2023/03/11 06:32:57;;;;;;;26.73;17.60;;;7.20;81.70;;;;;;5072513;28;20017;-16
2023/03/11 06:35:23;;;;;;;32.45;18.02;;;7.50;81.70;;;;;;5162901;22;20058;-22
2023/03/11 06:37:49;;;;;;;35.17;20.88;;;7.80;81.30;;;;;;5093314;28;20024;-21
2023/03/11 06:40:15;;;;;;;33.70;18.27;;;8.10;81.30;;;;;;5093153;28;20075;-22
2023/03/11 06:42:41;;;;;;;40.35;21.92;;;8.40;81.30;;;;;;5092698;28;20031;-22
2023/03/11 06:45:07;;;;;;;31.45;18.10;;;8.60;80.80;;;;;;5092993;28;20118;-21
2023/03/11 06:47:33;;;;;;;42.00;23.58;;;8.60;80.40;;;;;;5093215;28;20024;-20
2023/03/11 06:50:04;;;;;;;39.72;23.20;;;8.70;80.10;;;;;;5092660;28;20031;-20
2023/03/11 06:52:31;;;;;;;43.97;25.75;;;8.70;79.70;;;;;;5206011;22;20047;-20
2023/03/11 06:54:56;;;;;;;41.28;23.33;;;8.50;79.50;;;;;;5072446;28;20059;-19
2023/03/11 06:57:22;;;;;;;39.58;24.15;;;8.40;79.50;;;;;;5182561;22;20402;-13
2023/03/11 06:59:48;;;;;;;43.22;24.13;;;8.30;79.70;;;;;;5072523;28;20029;-17
2023/03/11 07:02:14;;;;;;;33.38;20.30;;;8.10;79.90;;;;;;5072533;28;20028;-17
2023/03/11 07:04:40;;;;;;;39.33;22.65;;;8.10;80.20;;;;;;5072110;28;20021;-17
2023/03/11 07:07:06;;;;;;;36.50;22.10;;;8.20;80.50;;;;;;5072224;28;20025;-16
2023/03/11 07:09:31;;;;;;;39.67;21.90;;;8.40;80.70;;;;;;5072703;28;20024;-17
2023/03/11 07:11:57;;;;;;;37.58;24.02;;;8.70;80.70;;;;;;5072344;28;20039;-18
2023/03/11 07:14:23;;;;;;;39.60;22.63;;;8.90;80.80;;;;;;5072307;28;20051;-16
2023/03/11 07:16:49;;;;;;;33.45;20.40;;;9.20;80.60;;;;;;5072032;28;20013;-16
2023/03/11 07:19:15;;;;;;;36.25;21.77;;;9.50;80.60;;;;;;5072500;28;20391;-16
2023/03/11 07:21:41;;;;;;;35.97;19.92;;;9.70;80.30;;;;;;5072436;28;20355;-16
2023/03/11 07:24:07;;;;;;;29.80;18.08;;;9.90;80.20;;;;;;5072478;28;20024;-17
2023/03/11 07:26:34;;;;;;;27.25;16.05;;;10.20;80.00;;;;;;5072204;28;20191;-16
2023/03/11 07:29:01;;;;;;;28.42;16.65;;;10.60;79.50;;;;;;5071880;28;20042;-16
2023/03/11 07:31:33;;;;;;;28.17;17.60;;;11.00;79.30;;;;;;5072374;28;20035;-16
2023/03/11 07:34:01;;;;;;;27.27;17.73;;;11.30;78.40;;;;;;5072250;28;20032;-16
2023/03/11 07:36:28;;;;;;;30.42;17.33;;;11.60;78.00;;;;;;5072223;28;20047;-17
2023/03/11 07:39:01;;;;;;;25.90;15.85;;;11.90;77.50;;;;;;5071959;28;20054;-17
2023/03/11 07:41:28;;;;;;;27.13;16.88;;;12.10;77.00;;;;;;5072428;28;20032;-16
2023/03/11 07:43:56;;;;;;;28.52;16.35;;;12.40;77.60;;;;;;5072120;28;20028;-17
2023/03/11 07:46:24;;;;;;;27.70;15.57;;;12.70;76.50;;;;;;5072059;28;20024;-17
2023/03/11 07:48:50;;;;;;;26.67;15.65;;;12.90;75.50;;;;;;5071788;28;20388;-16
2023/03/11 07:51:23;;;;;;;24.67;14.65;;;13.10;74.70;;;;;;5070616;28;20395;-15
2023/03/11 07:53:51;;;;;;;23.55;13.52;;;13.10;74.20;;;;;;5070727;28;20033;-17
2023/03/11 07:56:18;;;;;;;26.52;15.73;;;13.20;74.10;;;;;;5070607;28;20066;-16
2023/03/11 07:58:44;;;;;;;23.40;15.05;;;13.30;73.90;;;;;;5071515;28;20565;-17
2023/03/11 08:01:15;;;;;;;28.38;15.48;;;13.40;73.80;;;;;;5071843;28;20028;-17
2023/03/11 08:03:42;;;;;;;25.98;15.20;;;13.40;73.00;;;;;;5072007;28;20376;-17
2023/03/11 08:06:30;;;;;;;27.83;15.98;;;13.40;73.30;;;;;;5071930;28;20190;-18
2023/03/11 08:08:58;;;;;;;37.05;19.52;;;13.40;73.30;;;;;;5071881;28;20082;-17
2023/03/11 08:11:24;;;;;;;29.17;16.60;;;13.30;73.40;;;;;;5210818;22;20090;-19
2023/03/11 08:13:51;;;;;;;28.67;15.27;;;13.30;73.60;;;;;;5073949;28;20101;-20
2023/03/11 08:16:20;;;;;;;25.90;16.67;;;13.20;73.60;;;;;;5095695;28;20024;-20
2023/03/11 08:18:47;;;;;;;28.00;15.88;;;13.10;73.60;;;;;;5095470;28;20031;-19
2023/03/11 08:21:20;;;;;;;30.08;14.98;;;13.10;73.50;;;;;;5095830;28;20047;-20
2023/03/11 08:23:47;;;;;;;23.17;14.23;;;13.00;73.80;;;;;;5096214;28;20107;-20
2023/03/11 08:26:16;;;;;;;28.83;15.52;;;13.00;73.70;;;;;;5095290;28;20031;-19
2023/03/11 08:28:42;;;;;;;26.80;16.10;;;13.10;73.80;;;;;;5095511;28;20032;-19
2023/03/11 08:31:20;;;;;;;25.73;14.60;;;13.20;73.90;;;;;;5095321;28;20016;-18
2023/03/11 08:33:49;;;;;;;22.77;12.38;;;13.30;73.60;;;;;;5095237;28;20028;-19
2023/03/11 08:36:16;;;;;;;21.45;13.82;;;13.40;73.10;;;;;;5095226;28;20032;-19
2023/03/11 08:38:42;;;;;;;25.38;14.75;;;13.50;73.00;;;;;;5094941;28;20030;-21
2023/03/11 08:41:08;;;;;;;25.27;13.00;;;13.60;72.50;;;;;;5095010;28;20037;-19
2023/03/11 08:43:34;;;;;;;21.33;13.02;;;13.60;72.30;;;;;;5095414;28;20509;-18
2023/03/11 08:46:01;;;;;;;24.35;12.70;;;13.60;72.20;;;;;;5095354;28;20016;-21
2023/03/11 08:48:28;;;;;;;25.85;14.07;;;13.60;72.20;;;;;;5094997;28;20031;-20
2023/03/11 08:50:54;;;;;;;17.90;10.95;;;13.70;72.50;;;;;;5095088;28;20047;-19
2023/03/11 08:53:21;;;;;;;18.60;12.07;;;13.80;72.20;;;;;;5094880;28;20088;-20
2023/03/11 08:55:48;;;;;;;26.92;13.80;;;13.90;71.90;;;;;;5094849;28;20028;-19
2023/03/11 08:58:14;;;;;;;26.13;13.32;;;14.00;72.00;;;;;;5094876;28;20466;-20
2023/03/11 09:00:40;;;;;;;23.80;12.82;;;14.10;71.50;;;;;;5094644;28;20070;-19
2023/03/11 09:03:06;;;;;;;23.73;10.20;;;14.40;71.60;;;;;;5094856;28;20024;-19
2023/03/11 09:05:32;;;;;;;18.75;9.02;;;14.60;70.20;;;;;;5094874;28;20428;-20
2023/03/11 09:07:57;;;;;;;19.35;9.10;;;14.70;70.80;;;;;;5094845;28;20020;-20
2023/03/11 09:10:23;;;;;;;18.45;8.40;;;14.90;70.70;;;;;;5094552;28;20047;-19
2023/03/11 09:12:49;;;;;;;21.25;8.73;;;15.20;70.10;;;;;;5094512;28;20111;-19
2023/03/11 09:15:15;;;;;;;21.77;9.30;;;15.70;70.20;;;;;;5094749;28;20153;-20
2023/03/11 09:17:41;;;;;;;17.63;8.00;;;15.90;67.70;;;;;;5094788;28;20016;-18
2023/03/11 09:20:08;;;;;;;20.10;8.15;;;16.20;67.00;;;;;;5094387;28;20368;-18
2023/03/11 09:22:33;;;;;;;18.30;8.20;;;16.20;65.70;;;;;;5094617;28;20028;-18
2023/03/11 09:24:59;;;;;;;14.48;7.40;;;16.30;66.40;;;;;;5094008;28;20487;-17
2023/03/11 09:27:25;;;;;;;18.15;7.10;;;16.40;66.70;;;;;;5093298;28;20352;-18
2023/03/11 09:29:51;;;;;;;17.00;7.90;;;16.70;66.50;;;;;;5094575;28;20061;-18
2023/03/11 09:32:17;;;;;;;18.30;7.95;;;16.90;64.70;;;;;;5094513;28;20027;-20
2023/03/11 09:34:43;;;;;;;19.08;8.05;;;17.10;64.10;;;;;;5094302;28;20024;-19
2023/03/11 09:37:09;;;;;;;18.90;8.07;;;17.30;64.10;;;;;;5094425;28;20097;-19
2023/03/11 09:39:36;;;;;;;16.02;8.68;;;17.50;63.50;;;;;;5094044;28;20446;-20
2023/03/11 09:42:35;;;;;;;17.95;8.15;;;17.60;62.10;;;;;;5094223;28;20031;-19
2023/03/11 09:45:16;;;;;;;21.23;9.32;;;17.90;61.00;;;;;;5094037;28;20058;-18
2023/03/11 09:47:54;;;;;;;20.52;9.10;;;17.80;61.60;;;;;;5093966;28;20042;-19
2023/03/11 09:50:46;;;;;;;18.63;8.50;;;17.90;61.90;;;;;;5093907;28;20032;-20
2023/03/11 09:56:35;;;;;;;21.27;9.52;;;17.90;61.70;;;;;;5093773;28;20039;-18
2023/03/11 09:59:06;;;;;;;18.40;9.30;;;17.80;59.90;;;;;;5093455;28;20035;-18
2023/03/11 10:01:33;;;;;;;26.35;10.25;;;17.90;61.20;;;;;;5093837;28;20455;-18
2023/03/11 10:04:13;;;;;;;21.02;10.68;;;18.00;60.00;;;;;;5093917;28;20028;-18
2023/03/11 10:06:41;;;;;;;18.48;10.02;;;18.30;58.50;;;;;;5093657;28;20124;-18
2023/03/11 10:09:32;;;;;;;22.35;10.90;;;18.40;60.10;;;;;;5093629;28;20056;-18
2023/03/11 10:12:03;;;;;;;25.90;11.05;;;18.40;57.80;;;;;;5093149;28;20520;-17
2023/03/11 10:15:03;;;;;;;24.67;10.43;;;18.50;57.20;;;;;;5075290;28;20035;-18
2023/03/11 10:17:48;;;;;;;25.13;10.80;;;18.60;58.10;;;;;;5093445;28;20089;-18
2023/03/11 10:21:05;;;;;;;18.10;9.27;;;18.90;55.60;;;;;;5149946;22;20414;-17
2023/03/11 10:23:39;;;;;;;19.73;10.18;;;19.10;57.50;;;;;;4991895;28;20200;-14
2023/03/11 10:26:12;;;;;;;20.00;10.13;;;19.30;56.20;;;;;;4991772;28;20600;-15
2023/03/11 10:29:02;;;;;;;22.33;9.93;;;19.50;55.10;;;;;;5049426;28;20394;-14
2023/03/11 10:31:32;;;;;;;17.25;10.05;;;19.70;53.70;;;;;;5093295;28;20025;-15
2023/03/11 10:34:12;;;;;;;21.35;10.68;;;19.70;55.00;;;;;;5093309;28;20132;-13
2023/03/11 10:37:00;;;;;;;18.25;10.45;;;19.70;54.60;;;;;;5093086;28;20218;-16
2023/03/11 10:39:27;;;;;;;16.50;10.35;;;19.50;55.30;;;;;;5127712;22;20117;-18
2023/03/11 10:41:56;;;;;;;20.67;11.88;;;19.60;55.80;;;;;;5071363;28;20142;-19
2023/03/11 10:44:35;;;;;;;20.77;11.30;;;19.70;54.50;;;;;;5073061;28;20028;-18
2023/03/11 10:47:01;;;;;;;22.42;11.25;;;19.80;53.40;;;;;;5072376;28;20500;-19
2023/03/11 10:49:28;;;;;;;21.80;11.77;;;19.80;53.20;;;;;;5072654;28;20032;-18
2023/03/11 10:51:54;;;;;;;17.17;10.70;;;19.70;53.30;;;;;;5073079;28;20031;-19
2023/03/11 10:54:30;;;;;;;18.42;11.32;;;19.70;54.30;;;;;;5072760;28;20021;-18
2023/03/11 10:57:00;;;;;;;21.20;10.10;;;19.60;53.00;;;;;;5072378;28;20013;-18
2023/03/11 10:59:56;;;;;;;19.95;12.00;;;19.60;54.00;;;;;;5128001;22;20388;-15
2023/03/11 11:02:27;;;;;;;19.25;10.88;;;19.60;53.60;;;;;;5072045;28;20081;-17
2023/03/11 11:05:26;;;;;;;22.98;11.20;;;19.60;51.80;;;;;;5070979;28;20020;-15
2023/03/11 11:08:18;;;;;;;21.88;10.48;;;19.60;51.50;;;;;;5072461;28;20379;-15
2023/03/11 11:10:54;;;;;;;21.42;10.88;;;20.00;49.80;;;;;;5071001;28;20040;-15
2023/03/11 11:13:23;;;;;;;25.02;11.82;;;20.00;50.60;;;;;;5072286;28;20505;-14
2023/03/11 11:15:58;;;;;;;20.02;11.63;;;20.00;51.30;;;;;;5072639;28;20077;-15
2023/03/11 11:18:35;;;;;;;19.05;10.20;;;19.90;50.70;;;;;;5072250;28;20488;-15
2023/03/11 11:21:13;;;;;;;24.05;12.18;;;20.00;51.70;;;;;;5148251;22;20380;-15
2023/03/11 11:24:03;;;;;;;23.48;14.20;;;20.20;50.90;;;;;;5052473;28;20033;-17
2023/03/11 11:26:29;;;;;;;25.80;14.48;;;20.20;51.10;;;;;;5052297;28;20033;-16
2023/03/11 11:29:11;;;;;;;24.83;13.85;;;20.10;49.30;;;;;;5051871;28;20509;-16
2023/03/11 11:31:45;;;;;;;24.15;13.60;;;20.10;50.30;;;;;;5052005;28;20430;-14
2023/03/11 11:34:26;;;;;;;25.25;13.82;;;20.20;49.90;;;;;;5052278;28;20108;-16
2023/03/11 11:36:53;;;;;;;22.85;11.88;;;20.30;50.30;;;;;;5051832;28;20024;-15
2023/03/11 11:39:20;;;;;;;24.40;13.65;;;20.40;51.00;;;;;;5052211;28;20079;-16
2023/03/11 11:41:48;;;;;;;25.83;14.05;;;20.40;50.70;;;;;;5052087;28;20059;-16
2023/03/11 11:44:19;;;;;;;21.95;11.98;;;20.40;51.00;;;;;;5051790;28;20567;-16
2023/03/11 11:46:53;;;;;;;28.45;16.17;;;20.40;50.90;;;;;;5051514;28;20065;-16
2023/03/11 11:49:27;;;;;;;27.95;16.25;;;20.50;49.40;;;;;;5052914;28;20036;-16
2023/03/11 11:52:05;;;;;;;23.02;13.88;;;20.40;48.80;;;;;;5056069;28;20070;-15
2023/03/11 11:54:38;;;;;;;24.40;14.02;;;20.70;49.30;;;;;;5055780;28;20033;-16
2023/03/11 11:57:15;;;;;;;25.88;14.50;;;21.10;48.80;;;;;;5056219;28;20096;-16
2023/03/11 11:59:42;;;;;;;27.02;15.25;;;21.70;47.50;;;;;;5038026;28;20025;-15
2023/03/11 12:02:22;;;;;;;25.65;14.48;;;22.00;46.40;;;;;;5116647;22;20052;-17
2023/03/11 12:05:00;;;;;;;23.83;14.43;;;22.50;45.20;;;;;;5075689;28;20024;-17
2023/03/11 12:07:48;;;;;;;23.33;13.60;;;22.90;44.90;;;;;;5075624;28;20029;-16
2023/03/11 12:10:25;;;;;;;29.30;16.73;;;23.40;45.20;;;;;;5075932;28;20388;-17
2023/03/11 12:13:19;;;;;;;32.42;16.60;;;23.80;43.90;;;;;;5163696;22;20032;-17
2023/03/11 12:16:05;;;;;;;28.52;17.30;;;24.10;42.00;;;;;;5075658;28;20016;-17
2023/03/11 12:18:45;;;;;;;29.33;17.35;;;24.20;41.00;;;;;;5131718;22;20109;-14
2023/03/11 12:21:32;;;;;;;25.48;14.57;;;24.30;41.90;;;;;;5074192;28;20021;-14
2023/03/11 12:24:28;;;;;;;27.63;16.10;;;24.00;40.60;;;;;;5075640;28;20355;-15
2023/03/11 12:27:02;;;;;;;29.52;15.90;;;24.20;41.20;;;;;;5075148;28;20467;-14
2023/03/11 12:29:39;;;;;;;23.77;14.50;;;24.30;41.90;;;;;;5075832;28;20020;-13
2023/03/11 12:32:06;;;;;;;28.10;15.15;;;24.10;42.60;;;;;;5075556;28;20024;-17
2023/03/11 12:34:34;;;;;;;27.42;16.83;;;24.20;42.70;;;;;;5075411;28;20043;-12
2023/03/11 12:37:04;;;;;;;29.63;17.17;;;24.30;42.10;;;;;;5075219;28;20021;-15
2023/03/11 12:39:33;;;;;;;26.13;15.32;;;24.10;41.30;;;;;;5075399;28;20025;-12
2023/03/11 12:42:10;;;;;;;29.35;17.38;;;23.90;43.00;;;;;;5074978;28;20027;-14
2023/03/11 12:44:39;;;;;;;26.42;17.38;;;23.50;42.10;;;;;;5075336;28;20029;-14
2023/03/11 12:47:11;;;;;;;27.50;15.80;;;23.10;43.20;;;;;;5074760;28;20036;-12
2023/03/11 12:49:39;;;;;;;28.77;17.27;;;23.20;44.60;;;;;;5075258;28;20024;-14